createdAt,value
2022-10-23T00:01:37.875Z,10.90
2022-10-23T00:04:07.318Z,10.15
2022-10-23T00:06:35.931Z,8.88
2022-10-23T00:09:07.227Z,9.55
2022-10-23T00:11:35.487Z,9.63
2022-10-23T00:14:06.747Z,9.18
2022-10-23T00:16:36.055Z,8.98
2022-10-23T00:19:04.588Z,9.52
2022-10-23T00:21:32.336Z,9.38
2022-10-23T00:23:59.912Z,9.63
2022-10-23T00:26:27.674Z,10.50
2022-10-23T00:28:55.570Z,10.77
2022-10-23T00:31:24.624Z,10.25
2022-10-23T00:33:53.863Z,13.07
2022-10-23T00:36:22.031Z,10.63
2022-10-23T00:38:51.460Z,11.57
2022-10-23T00:41:22.089Z,10.48
2022-10-23T00:44:07.753Z,11.48
2022-10-23T00:46:36.157Z,10.60
2022-10-23T00:49:06.254Z,10.20
2022-10-23T00:51:40.537Z,9.43
2022-10-23T00:54:25.585Z,9.68
2022-10-23T00:57:07.437Z,9.40
2022-10-23T00:59:37.037Z,9.80
2022-10-23T01:02:12.523Z,8.38
2022-10-23T01:04:41.523Z,8.38
2022-10-23T01:07:13.812Z,8.43
2022-10-23T01:09:47.895Z,8.88
2022-10-23T01:12:24.447Z,8.80
2022-10-23T01:15:00.867Z,8.70
2022-10-23T01:17:34.643Z,8.48
2022-10-23T01:20:19.186Z,7.97
2022-10-23T01:23:15.142Z,8.90
2022-10-23T01:25:59.291Z,8.05
2022-10-23T01:28:33.915Z,8.13
2022-10-23T01:31:08.433Z,7.88
2022-10-23T01:33:41.525Z,8.85
2022-10-23T01:36:16.891Z,8.80
2022-10-23T01:38:49.633Z,8.77
2022-10-23T01:41:29.430Z,8.80
2022-10-23T01:44:04.177Z,8.60
2022-10-23T01:46:35.391Z,7.53
2022-10-23T01:49:06.735Z,8.02
2022-10-23T01:51:37.587Z,7.75
2022-10-23T01:54:10.169Z,8.05
2022-10-23T01:56:41.384Z,7.57
2022-10-23T01:59:15.665Z,7.70
2022-10-23T02:01:48.211Z,7.82
2022-10-23T02:04:21.813Z,7.45
2022-10-23T02:06:49.479Z,8.00
2022-10-23T02:09:16.921Z,8.75
2022-10-23T02:11:53.465Z,9.50
2022-10-23T02:14:36.057Z,11.20
2022-10-23T02:17:09.831Z,10.48
2022-10-23T02:19:45.359Z,9.60
2022-10-23T02:22:16.765Z,10.77
2022-10-23T02:24:49.927Z,9.60
2022-10-23T02:27:20.681Z,9.50
2022-10-23T02:29:58.975Z,9.68
2022-10-23T02:32:29.080Z,8.68
2022-10-23T02:34:56.866Z,8.43
2022-10-23T02:37:24.486Z,9.05
2022-10-23T02:39:53.222Z,9.68
2022-10-23T02:42:26.345Z,9.32
2022-10-23T02:45:05.167Z,9.32
2022-10-23T02:47:55.326Z,8.80
2022-10-23T02:50:29.469Z,8.07
2022-10-23T02:53:05.601Z,6.90
2022-10-23T02:55:42.956Z,7.85
2022-10-23T02:58:19.296Z,6.70
2022-10-23T03:01:01.785Z,7.82
2022-10-23T03:03:40.255Z,9.48
2022-10-23T03:06:08.145Z,7.32
2022-10-23T03:08:50.722Z,7.57
2022-10-23T03:11:19.472Z,7.40
2022-10-23T03:13:46.891Z,8.23
2022-10-23T03:16:15.831Z,7.28
2022-10-23T03:18:48.930Z,8.20
2022-10-23T03:21:17.920Z,8.00
2022-10-23T03:23:45.451Z,8.50
2022-10-23T03:26:18.032Z,8.32
2022-10-23T03:28:45.483Z,8.43
2022-10-23T03:31:12.856Z,8.68
2022-10-23T03:33:41.816Z,8.10
2022-10-23T03:36:11.993Z,8.30
2022-10-23T03:38:40.376Z,7.80
2022-10-23T03:41:07.769Z,8.50
2022-10-23T03:43:35.215Z,8.65
2022-10-23T03:46:03.295Z,8.75
2022-10-23T03:48:33.795Z,8.32
2022-10-23T03:51:02.618Z,8.98
2022-10-23T03:53:31.820Z,8.23
2022-10-23T03:56:02.353Z,8.48
2022-10-23T03:58:29.798Z,8.38
2022-10-23T04:00:57.400Z,9.32
2022-10-23T04:03:24.992Z,8.25
2022-10-23T04:05:52.945Z,8.48
2022-10-23T04:08:23.888Z,8.02
2022-10-23T04:10:54.844Z,8.38
2022-10-23T04:13:31.594Z,9.23
2022-10-23T04:15:59.015Z,8.23
2022-10-23T04:18:26.534Z,8.75
2022-10-23T04:20:54.594Z,8.45
2022-10-23T04:23:23.633Z,8.57
2022-10-23T04:25:51.121Z,8.40
2022-10-23T04:28:23.399Z,8.73
2022-10-23T04:30:50.840Z,8.40
2022-10-23T04:33:18.496Z,8.68
2022-10-23T04:35:49.206Z,8.30
2022-10-23T04:38:17.425Z,9.70
2022-10-23T04:40:48.988Z,8.43
2022-10-23T04:43:20.916Z,8.80
2022-10-23T04:45:49.636Z,8.13
2022-10-23T04:48:17.672Z,8.52
2022-10-23T04:51:06.842Z,11.65
2022-10-23T04:53:53.469Z,8.40
2022-10-23T04:56:37.544Z,8.65
2022-10-23T04:59:09.018Z,8.35
2022-10-23T05:01:38.561Z,8.45
2022-10-23T05:04:08.255Z,8.32
2022-10-23T05:06:50.340Z,8.18
2022-10-23T05:09:28.081Z,7.88
2022-10-23T05:12:17.917Z,7.57
2022-10-23T05:14:45.396Z,8.77
2022-10-23T05:17:20.191Z,8.43
2022-10-23T05:19:58.499Z,8.02
2022-10-23T05:22:30.444Z,7.97
2022-10-23T05:24:58.775Z,8.15
2022-10-23T05:27:28.705Z,8.20
2022-10-23T05:29:56.655Z,8.25
2022-10-23T05:32:29.939Z,8.50
2022-10-23T05:34:59.349Z,8.30
2022-10-23T05:37:29.615Z,9.35
2022-10-23T05:40:08.034Z,8.70
2022-10-23T05:42:40.930Z,8.80
2022-10-23T05:45:11.629Z,9.23
2022-10-23T05:48:11.002Z,8.88
2022-10-23T05:51:22.826Z,9.77
2022-10-23T05:54:19.804Z,8.55
2022-10-23T05:56:56.248Z,9.02
2022-10-23T05:59:33.225Z,9.02
2022-10-23T06:02:15.720Z,11.23
2022-10-23T06:04:53.099Z,9.25
2022-10-23T06:07:40.657Z,8.25
2022-10-23T06:10:10.968Z,8.80
2022-10-23T06:12:43.359Z,10.57
2022-10-23T06:15:17.447Z,9.40
2022-10-23T06:18:10.398Z,8.73
2022-10-23T06:20:48.016Z,8.95
2022-10-23T06:23:24.403Z,9.23
2022-10-23T06:29:26.672Z,8.98
2022-10-23T06:31:55.702Z,9.10
2022-10-23T06:34:23.929Z,9.25
2022-10-23T06:36:51.818Z,9.27
2022-10-23T06:39:45.605Z,8.60
2022-10-23T06:42:15.984Z,8.85
2022-10-23T06:44:55.491Z,8.57
2022-10-23T06:47:51.910Z,9.00
2022-10-23T06:50:37.953Z,10.82
2022-10-23T06:53:11.507Z,9.38
2022-10-23T06:55:43.780Z,8.70
2022-10-23T06:58:11.881Z,9.25
2022-10-23T07:00:55.916Z,8.10
2022-10-23T07:03:24.906Z,9.68
2022-10-23T07:05:53.030Z,8.95
2022-10-23T07:08:20.847Z,8.57
2022-10-23T07:10:53.408Z,9.40
2022-10-23T07:13:22.020Z,8.52
2022-10-23T07:15:58.621Z,8.60
2022-10-23T07:18:29.101Z,9.00
2022-10-23T07:21:25.728Z,7.75
2022-10-23T07:23:56.311Z,8.77
2022-10-23T07:26:24.581Z,9.32
2022-10-23T07:28:52.533Z,10.85
2022-10-23T07:34:15.358Z,8.73
2022-10-23T07:36:44.876Z,9.30
2022-10-23T07:39:13.653Z,8.63
2022-10-23T07:41:47.851Z,10.85
2022-10-23T07:44:16.007Z,9.43
2022-10-23T07:46:44.000Z,9.65
2022-10-23T07:49:11.721Z,10.15
2022-10-23T07:51:42.149Z,11.93
2022-10-23T07:54:12.140Z,9.43
2022-10-23T07:57:10.465Z,9.10
2022-10-23T07:59:46.093Z,9.73
2022-10-23T08:02:16.570Z,9.18
2022-10-23T08:04:44.784Z,8.52
2022-10-23T08:07:26.148Z,10.80
2022-10-23T08:09:56.651Z,8.68
2022-10-23T08:12:24.277Z,9.65
2022-10-23T08:14:51.673Z,8.27
2022-10-23T08:17:19.225Z,10.48
2022-10-23T08:20:18.479Z,7.88
2022-10-23T08:22:47.840Z,7.55
2022-10-23T08:25:25.252Z,7.32
2022-10-23T08:27:54.061Z,7.97
2022-10-23T08:30:21.883Z,7.85
2022-10-23T08:32:49.373Z,7.38
2022-10-23T08:35:17.428Z,8.15
2022-10-23T08:37:44.965Z,7.00
2022-10-23T08:40:17.366Z,7.28
2022-10-23T08:43:12.160Z,6.60
2022-10-23T08:45:56.073Z,6.95
2022-10-23T08:48:56.968Z,6.72
2022-10-23T08:51:55.918Z,5.88
2022-10-23T08:54:28.224Z,7.10
2022-10-23T08:57:03.766Z,6.28
2022-10-23T08:59:36.595Z,6.10
2022-10-23T09:02:10.931Z,5.55
2022-10-23T09:04:38.383Z,6.57
2022-10-23T09:07:20.412Z,5.80
2022-10-23T09:10:01.753Z,6.07
2022-10-23T09:12:31.932Z,5.57
2022-10-23T09:15:15.230Z,5.78
2022-10-23T09:17:44.230Z,5.90
2022-10-23T09:20:18.994Z,5.20
2022-10-23T09:22:47.518Z,5.85
2022-10-23T09:25:19.859Z,5.60
2022-10-23T09:27:54.785Z,5.90
2022-10-23T09:30:29.281Z,5.78
2022-10-23T09:32:56.719Z,5.70
2022-10-23T09:35:26.333Z,5.57
2022-10-23T09:37:54.088Z,5.95
2022-10-23T09:40:29.915Z,6.05
2022-10-23T09:43:01.234Z,6.05
2022-10-23T09:45:32.387Z,7.05
2022-10-23T09:48:06.449Z,5.47
2022-10-23T09:50:33.934Z,6.07
2022-10-23T09:53:01.378Z,7.10
2022-10-23T09:55:29.511Z,6.28
2022-10-23T09:57:58.509Z,6.95
2022-10-23T10:00:27.426Z,7.43
2022-10-23T10:02:57.244Z,7.70
2022-10-23T10:05:43.294Z,7.78
2022-10-23T10:08:28.909Z,7.00
2022-10-23T10:11:02.389Z,7.55
2022-10-23T10:13:52.975Z,7.60
2022-10-23T10:16:31.862Z,7.63
2022-10-23T10:19:07.033Z,6.20
2022-10-23T10:22:03.254Z,6.22
2022-10-23T10:24:36.170Z,5.85
2022-10-23T10:27:14.188Z,6.55
2022-10-23T10:30:00.893Z,6.00
2022-10-23T10:32:40.323Z,5.85
2022-10-23T10:35:34.264Z,6.43
2022-10-23T10:38:20.585Z,6.38
2022-10-23T10:40:54.380Z,6.07
2022-10-23T10:43:35.450Z,6.22
2022-10-23T10:46:14.164Z,6.47
2022-10-23T10:48:48.841Z,6.30
2022-10-23T10:51:32.575Z,5.68
2022-10-23T10:54:19.930Z,6.07
2022-10-23T10:57:10.994Z,6.25
2022-10-23T10:59:45.951Z,5.82
2022-10-23T11:02:27.438Z,5.53
2022-10-23T11:07:30.114Z,6.28
2022-10-23T11:10:03.288Z,5.63
2022-10-23T11:12:30.764Z,5.65
2022-10-23T11:14:58.266Z,6.50
2022-10-23T11:17:34.771Z,7.15
2022-10-23T11:20:06.040Z,6.28
2022-10-23T11:22:37.124Z,6.90
2022-10-23T11:25:33.016Z,7.10
2022-10-23T11:28:18.412Z,8.38
2022-10-23T11:31:01.334Z,6.85
2022-10-23T11:33:56.986Z,6.18
2022-10-23T11:36:43.034Z,6.10
2022-10-23T11:39:20.971Z,6.22
2022-10-23T11:41:51.203Z,8.18
2022-10-23T11:44:40.418Z,6.47
2022-10-23T11:47:29.028Z,7.50
2022-10-23T11:50:17.461Z,7.15
2022-10-23T11:53:23.788Z,7.22
2022-10-23T11:56:00.323Z,6.78
2022-10-23T11:58:40.500Z,7.38
2022-10-23T12:01:34.052Z,8.20
2022-10-23T12:04:06.374Z,8.93
2022-10-23T12:06:41.329Z,8.82
2022-10-23T12:09:23.732Z,11.77
2022-10-23T12:12:05.539Z,8.73
2022-10-23T12:14:36.246Z,8.45
2022-10-23T12:17:28.249Z,10.57
2022-10-23T12:20:03.867Z,10.25
2022-10-23T12:22:42.407Z,11.05
2022-10-23T12:25:15.530Z,12.07
2022-10-23T12:27:49.787Z,10.93
2022-10-23T12:30:21.907Z,11.60
2022-10-23T12:33:10.248Z,11.48
2022-10-23T12:36:19.725Z,12.98
2022-10-23T12:38:51.212Z,11.00
2022-10-23T12:41:22.809Z,10.63
2022-10-23T12:43:54.501Z,11.68
2022-10-23T12:46:34.397Z,11.00
2022-10-23T12:49:04.816Z,11.05
2022-10-23T12:51:34.656Z,12.98
2022-10-23T12:56:36.435Z,10.85
2022-10-23T12:59:05.464Z,9.93
2022-10-23T13:01:34.341Z,11.95
2022-10-23T13:04:08.237Z,9.93
2022-10-23T13:06:36.040Z,9.65
2022-10-23T13:09:06.516Z,9.50
2022-10-23T13:11:34.999Z,10.18
2022-10-23T13:14:12.407Z,11.82
2022-10-23T13:16:39.964Z,11.07
2022-10-23T13:19:21.662Z,10.00
2022-10-23T13:21:49.478Z,8.88
2022-10-23T13:24:21.582Z,10.55
2022-10-23T13:26:49.083Z,11.15
2022-10-23T13:29:21.218Z,10.15
2022-10-23T13:31:49.511Z,12.18
2022-10-23T13:34:26.226Z,10.23
2022-10-23T13:36:58.246Z,12.88
2022-10-23T13:39:35.027Z,13.45
2022-10-23T13:42:12.720Z,11.43
2022-10-23T13:44:41.075Z,12.68
2022-10-23T13:47:12.541Z,9.85
2022-10-23T13:49:39.944Z,11.73
2022-10-23T13:52:11.223Z,11.73
2022-10-23T13:54:40.456Z,11.40
2022-10-23T13:57:13.672Z,9.55
2022-10-23T13:59:41.222Z,9.13
2022-10-23T14:02:18.072Z,10.73
2022-10-23T14:04:45.716Z,9.93
2022-10-23T14:07:13.792Z,10.05
2022-10-23T14:09:42.609Z,12.45
2022-10-23T14:12:09.993Z,11.00
2022-10-23T14:14:37.543Z,13.15
2022-10-23T14:17:05.115Z,11.38
2022-10-23T14:19:33.651Z,11.70
2022-10-23T14:22:01.280Z,10.48
2022-10-23T14:24:30.913Z,10.55
2022-10-23T14:26:59.734Z,10.48
2022-10-23T14:29:27.356Z,13.93
2022-10-23T14:31:54.754Z,9.60
2022-10-23T14:34:22.141Z,9.73
2022-10-23T14:36:56.728Z,11.63
2022-10-23T14:39:31.404Z,12.07
2022-10-23T14:42:00.905Z,11.55
2022-10-23T14:44:28.338Z,12.67
2022-10-23T14:46:55.813Z,12.10
2022-10-23T14:49:23.570Z,13.18
2022-10-23T14:51:51.008Z,10.32
2022-10-23T14:54:18.408Z,10.20
2022-10-23T14:56:50.014Z,10.68
2022-10-23T14:59:18.906Z,10.70
2022-10-23T15:01:48.436Z,7.87
2022-10-23T15:06:46.515Z,9.70
2022-10-23T15:09:15.158Z,7.93
2022-10-23T15:11:45.666Z,8.20
2022-10-23T15:14:16.737Z,7.80
2022-10-23T15:16:45.871Z,7.75
2022-10-23T15:19:18.656Z,8.32
2022-10-23T15:21:47.416Z,8.95
2022-10-23T15:24:17.024Z,9.95
2022-10-23T15:26:44.992Z,9.80
2022-10-23T15:29:15.755Z,10.18
2022-10-23T15:31:48.153Z,10.27
2022-10-23T15:34:18.355Z,11.25
2022-10-23T15:36:46.347Z,9.70
2022-10-23T15:39:16.102Z,10.50
2022-10-23T15:41:43.909Z,10.85
2022-10-23T15:44:14.158Z,9.90
2022-10-23T15:46:46.634Z,10.73
2022-10-23T15:49:14.623Z,11.40
2022-10-23T15:51:44.165Z,9.57
2022-10-23T15:54:15.878Z,10.82
2022-10-23T15:56:43.677Z,11.38
2022-10-23T15:59:14.945Z,11.27
2022-10-23T16:01:42.692Z,10.38
2022-10-23T16:04:12.183Z,11.20
2022-10-23T16:06:41.290Z,10.25
2022-10-23T16:09:10.197Z,11.23
2022-10-23T16:11:39.872Z,14.23
2022-10-23T16:16:40.267Z,9.40
2022-10-23T16:19:12.831Z,10.82
2022-10-23T16:21:41.248Z,10.05
2022-10-23T16:24:11.948Z,13.05
2022-10-23T16:26:39.830Z,12.05
2022-10-23T16:29:09.162Z,12.02
2022-10-23T16:31:38.262Z,13.60
2022-10-23T16:34:08.518Z,11.38
2022-10-23T16:36:38.618Z,13.88
2022-10-23T16:39:10.011Z,11.50
2022-10-23T16:41:56.230Z,13.88
2022-10-23T16:44:28.211Z,13.73
2022-10-23T16:47:00.103Z,10.35
2022-10-23T16:49:27.502Z,15.70
2022-10-23T16:51:56.334Z,12.15
2022-10-23T16:54:24.195Z,11.40
2022-10-23T16:56:51.637Z,14.30
2022-10-23T16:59:19.054Z,10.00
2022-10-23T17:01:46.506Z,14.38
2022-10-23T17:04:13.980Z,11.60
2022-10-23T17:06:41.408Z,13.10
2022-10-23T17:09:10.341Z,14.20
2022-10-23T17:11:39.473Z,15.00
2022-10-23T17:14:11.946Z,13.80
2022-10-23T17:16:41.229Z,12.68
2022-10-23T17:19:20.703Z,12.27
2022-10-23T17:21:56.074Z,12.68
2022-10-23T17:24:25.041Z,12.55
2022-10-23T17:26:52.705Z,12.82
2022-10-23T17:29:20.592Z,14.25
2022-10-23T17:31:49.927Z,12.45
2022-10-23T17:34:19.966Z,15.57
2022-10-23T17:36:49.209Z,13.00
2022-10-23T17:39:20.202Z,14.30
2022-10-23T17:41:49.235Z,12.20
2022-10-23T17:44:16.942Z,14.30
2022-10-23T17:46:44.465Z,15.40
2022-10-23T17:49:12.116Z,15.07
2022-10-23T17:51:42.406Z,15.85
2022-10-23T17:54:11.828Z,14.88
2022-10-23T17:56:39.458Z,16.38
2022-10-23T17:59:10.469Z,14.10
2022-10-23T18:01:39.571Z,16.33
2022-10-23T18:04:08.217Z,15.43
2022-10-23T18:06:37.624Z,13.93
2022-10-23T18:09:06.136Z,14.73
2022-10-23T18:11:35.724Z,16.92
2022-10-23T18:14:04.727Z,14.85
2022-10-23T18:16:34.376Z,19.15
2022-10-23T18:19:02.091Z,17.20
2022-10-23T18:21:29.523Z,19.55
2022-10-23T18:23:59.463Z,17.90
2022-10-23T18:26:29.027Z,17.02
2022-10-23T18:28:58.753Z,19.73
2022-10-23T18:31:27.804Z,19.20
2022-10-23T18:33:57.577Z,16.08
2022-10-23T18:41:26.313Z,19.30
2022-10-23T18:43:54.899Z,18.38
2022-10-23T18:46:22.725Z,19.88
2022-10-23T18:48:50.214Z,15.60
2022-10-23T18:51:23.128Z,17.25
2022-10-23T18:53:51.275Z,16.30
2022-10-23T18:56:20.609Z,16.60
2022-10-23T18:58:48.334Z,16.98
2022-10-23T19:01:15.850Z,17.40
2022-10-23T19:03:44.020Z,20.23
2022-10-23T19:06:14.932Z,16.35
2022-10-23T19:08:44.663Z,18.90
2022-10-23T19:13:42.134Z,16.92
2022-10-23T19:16:14.861Z,17.10
2022-10-23T19:18:48.890Z,15.70
2022-10-23T19:21:18.236Z,16.63
2022-10-23T19:23:49.454Z,18.25
2022-10-23T19:26:17.017Z,4.70
2022-10-23T19:28:47.934Z,12.77
2022-10-23T19:31:15.601Z,15.00
2022-10-23T19:33:43.308Z,14.05
2022-10-23T19:36:14.116Z,14.00
2022-10-23T19:38:42.165Z,12.90
2022-10-23T19:41:11.191Z,14.70
2022-10-23T19:43:41.316Z,12.50
2022-10-23T19:46:12.318Z,15.82
2022-10-23T19:48:40.184Z,13.75
2022-10-23T19:51:12.343Z,13.98
2022-10-23T19:53:40.447Z,14.05
2022-10-23T19:56:11.406Z,13.68
2022-10-23T19:58:39.851Z,13.25
2022-10-23T20:01:14.233Z,12.55
2022-10-23T20:03:42.594Z,12.70
2022-10-23T20:06:10.904Z,11.57
2022-10-23T20:08:38.900Z,11.38
2022-10-23T20:11:19.376Z,12.50
2022-10-23T20:13:48.294Z,11.02
2022-10-23T20:16:19.952Z,10.23
2022-10-23T20:18:47.461Z,11.43
2022-10-23T20:21:15.417Z,9.90
2022-10-23T20:23:43.107Z,9.25
2022-10-23T20:26:13.652Z,9.98
2022-10-23T20:28:41.024Z,10.40
2022-10-23T20:31:10.020Z,9.60
2022-10-23T20:33:38.920Z,10.80
2022-10-23T20:36:09.228Z,8.85
2022-10-23T20:38:36.979Z,8.85
2022-10-23T20:41:05.741Z,8.50
2022-10-23T20:43:36.162Z,8.93
2022-10-23T20:46:04.350Z,8.43
2022-10-23T20:48:35.209Z,8.13
2022-10-23T20:51:03.695Z,7.57
2022-10-23T20:53:35.445Z,8.13
2022-10-23T20:56:05.248Z,7.00
2022-10-23T21:01:06.261Z,6.85
2022-10-23T21:03:33.758Z,6.97
2022-10-23T21:06:03.838Z,6.78
2022-10-23T21:08:32.559Z,6.60
2022-10-23T21:11:04.802Z,6.72
2022-10-23T21:13:32.426Z,6.78
2022-10-23T21:16:00.719Z,6.97
2022-10-23T21:18:45.583Z,6.47
2022-10-23T21:21:13.830Z,7.18
2022-10-23T21:23:41.348Z,7.05
2022-10-23T21:26:08.961Z,8.18
2022-10-23T21:28:36.385Z,8.35
2022-10-23T21:31:04.477Z,8.77
2022-10-23T21:33:33.738Z,8.20
2022-10-23T21:36:12.890Z,7.72
2022-10-23T21:38:41.156Z,8.02
2022-10-23T21:41:10.691Z,7.43
2022-10-23T21:43:38.137Z,8.65
2022-10-23T21:46:06.319Z,7.15
2022-10-23T21:48:35.141Z,6.97
2022-10-23T21:51:03.087Z,7.53
2022-10-23T21:53:30.906Z,7.90
2022-10-23T21:56:05.302Z,9.30
2022-10-23T21:58:32.773Z,8.45
2022-10-23T22:01:00.870Z,8.00
2022-10-23T22:03:28.228Z,9.15
2022-10-23T22:05:58.302Z,9.68
2022-10-23T22:08:25.715Z,8.02
2022-10-23T22:10:53.328Z,8.88
2022-10-23T22:13:20.861Z,9.50
2022-10-23T22:15:48.209Z,9.35
2022-10-23T22:18:16.054Z,7.88
2022-10-23T22:20:46.058Z,9.23
2022-10-23T22:23:16.214Z,7.57
2022-10-23T22:25:46.127Z,7.78
2022-10-23T22:28:14.668Z,9.68
2022-10-23T22:30:43.715Z,6.82
2022-10-23T22:33:13.951Z,10.35
2022-10-23T22:35:44.084Z,11.35
2022-10-23T22:38:12.740Z,9.45
2022-10-23T22:40:46.558Z,10.30
2022-10-23T22:43:14.162Z,10.63
2022-10-23T22:45:42.255Z,9.07
2022-10-23T22:48:12.708Z,10.18
2022-10-23T22:50:42.550Z,9.88
2022-10-23T22:53:11.102Z,9.45
2022-10-23T22:55:43.043Z,10.43
2022-10-23T22:58:11.145Z,9.68
2022-10-23T23:00:42.801Z,7.80
2022-10-23T23:03:11.170Z,9.70
2022-10-23T23:08:15.209Z,9.73
2022-10-23T23:10:52.386Z,7.72
2022-10-23T23:13:19.818Z,9.95
2022-10-23T23:15:47.281Z,8.02
2022-10-23T23:18:14.725Z,9.32
2022-10-23T23:20:42.091Z,7.03
2022-10-23T23:23:09.662Z,7.45
2022-10-23T23:25:41.517Z,8.00
2022-10-23T23:28:11.987Z,7.80
2022-10-23T23:30:39.894Z,8.32
2022-10-23T23:33:08.374Z,6.22
2022-10-23T23:35:39.868Z,7.20
2022-10-23T23:38:07.544Z,7.90
2022-10-23T23:40:37.754Z,6.60
2022-10-23T23:43:05.465Z,9.02
2022-10-23T23:45:42.398Z,6.57
2022-10-23T23:48:09.790Z,7.22
2022-10-23T23:50:37.218Z,7.22
2022-10-23T23:53:06.175Z,7.53
2022-10-23T23:55:35.258Z,6.70
2022-10-23T23:58:04.510Z,6.60
